Time;durP1;ratioP1;P1;durP2;ratioP2;P2;SDS_P1;SDS_P2;PMS_P1;PMS_P2;Temp;Humidity;BMP_temperature;BMP_pressure;BME280_temperature;BME280_humidity;BME280_pressure;Samples;Min_cycle;Max_cycle;Signal;HPM_P1;HPM_P2
2023/03/03 00:01:29;;;;;;;;;54.33;41.33;;;;;4.91;71.73;102066.28;5117096;27;47198;-62
2023/03/03 00:03:56;;;;;;;;;59.33;42.00;;;;;4.80;71.79;102060.84;5117659;27;45296;-62
2023/03/03 00:06:21;;;;;;;;;54.67;44.33;;;;;4.79;72.01;102059.06;5117624;27;45374;-62
2023/03/03 00:08:46;;;;;;;;;56.00;42.00;;;;;4.83;72.21;102080.03;5117237;27;45506;-62
2023/03/03 00:11:13;;;;;;;;;54.67;43.33;;;;;4.78;72.26;102063.44;5117586;27;46745;-62
2023/03/03 00:13:52;;;;;;;;;62.00;45.33;;;;;4.74;72.11;102068.53;5121196;27;45236;-62
2023/03/03 00:16:30;;;;;;;;;54.00;39.33;;;;;4.78;71.95;102086.00;5121471;27;45500;-62
2023/03/03 00:18:57;;;;;;;;;50.33;42.33;;;;;4.71;72.75;102079.78;5120817;27;45494;-62
2023/03/03 00:21:38;;;;;;;;;52.67;39.00;;;;;4.74;71.79;102086.81;5120985;27;46164;-62
2023/03/03 00:24:04;;;;;;;;;46.33;40.00;;;;;4.69;73.06;102091.88;5119560;27;45371;-62
2023/03/03 00:26:38;;;;;;;;;61.00;42.33;;;;;4.66;72.30;102086.59;5119007;27;45502;-62
2023/03/03 00:29:32;;;;;;;;;57.33;42.33;;;;;4.65;72.08;102085.75;5118290;27;45517;-62
2023/03/03 00:32:20;;;;;;;;;58.00;42.67;;;;;4.64;72.89;102083.97;5118357;27;45436;-62
2023/03/03 00:34:46;;;;;;;;;60.33;43.00;;;;;4.65;72.84;102092.69;5118559;27;45456;-62
2023/03/03 00:37:26;;;;;;;;;59.00;43.67;;;;;4.62;73.32;102085.66;5118658;27;45506;-62
2023/03/03 00:39:52;;;;;;;;;61.67;43.00;;;;;4.60;72.59;102084.72;5117598;27;45495;-62
2023/03/03 00:42:18;;;;;;;;;54.67;41.33;;;;;4.58;72.54;102086.44;5118770;27;45434;-62
2023/03/03 00:44:48;;;;;;;;;49.33;38.67;;;;;4.56;72.81;102087.25;5118646;27;45440;-62
2023/03/03 00:47:22;;;;;;;;;57.67;41.00;;;;;4.60;72.85;102086.47;5118616;27;45393;-62
2023/03/03 00:49:47;;;;;;;;;51.67;40.00;;;;;4.48;72.60;102080.13;5117921;27;45441;-62
2023/03/03 00:52:16;;;;;;;;;56.00;40.00;;;;;4.49;71.69;102084.50;5118679;27;46220;-62
2023/03/03 00:54:42;;;;;;;;;47.00;40.00;;;;;4.53;72.55;102088.03;5120205;27;45237;-62
2023/03/03 00:57:07;;;;;;;;;49.67;39.67;;;;;4.49;72.31;102087.09;5120885;27;45421;-63
2023/03/03 00:59:33;;;;;;;;;47.67;39.00;;;;;4.54;72.19;102100.25;5120799;27;45425;-63
2023/03/03 01:01:58;;;;;;;;;52.33;41.67;;;;;4.49;72.33;102100.16;5120462;27;45617;-62
2023/03/03 01:04:23;;;;;;;;;50.33;40.00;;;;;4.43;72.47;102097.41;5120077;27;45346;-61
2023/03/03 01:06:49;;;;;;;;;52.33;39.67;;;;;4.46;72.57;102100.06;5120059;27;45488;-61
2023/03/03 01:09:14;;;;;;;;;47.33;40.00;;;;;4.45;72.10;102107.84;5120887;27;45332;-61
2023/03/03 01:11:40;;;;;;;;;54.67;42.00;;;;;4.47;71.97;102112.28;5120611;27;45607;-61
2023/03/03 01:14:06;;;;;;;;;46.33;39.00;;;;;4.04;72.01;102051.25;5120757;27;45437;-62
2023/03/03 01:16:32;;;;;;;;;56.67;38.33;;;;;4.40;72.47;102117.28;5120636;27;45339;-61
2023/03/03 01:18:58;;;;;;;;;48.67;39.33;;;;;4.39;72.32;102116.41;5120545;27;45383;-62
2023/03/03 01:21:23;;;;;;;;;53.67;41.67;;;;;4.41;72.05;102113.84;5119997;27;46226;-62
2023/03/03 01:23:48;;;;;;;;;48.33;39.00;;;;;4.39;71.79;102113.81;5119254;27;45396;-62
2023/03/03 01:26:14;;;;;;;;;47.33;39.33;;;;;4.39;72.33;102116.41;5120522;27;45303;-62
2023/03/03 01:28:39;;;;;;;;;46.67;40.33;;;;;4.31;72.49;102103.19;5120613;27;45469;-63
2023/03/03 01:31:05;;;;;;;;;53.33;40.33;;;;;4.32;72.29;102104.06;5120019;27;45658;-63
2023/03/03 01:33:32;;;;;;;;;52.33;37.67;;;;;4.26;72.46;102094.34;5120465;27;45649;-63
2023/03/03 01:35:58;;;;;;;;;54.33;40.67;;;;;4.33;72.68;102116.25;5120324;27;45338;-63
2023/03/03 01:38:23;;;;;;;;;48.67;38.67;;;;;4.30;72.60;102108.38;5118727;27;45553;-63
2023/03/03 01:40:56;;;;;;;;;51.33;40.00;;;;;4.32;73.12;102112.75;5119879;27;46222;-63
2023/03/03 01:43:22;;;;;;;;;47.00;34.67;;;;;4.33;72.96;102118.88;5119993;27;45415;-62
2023/03/03 01:45:47;;;;;;;;;49.67;36.33;;;;;4.30;72.62;102117.06;5119971;27;45295;-63
2023/03/03 01:48:30;;;;;;;;;41.33;34.33;;;;;4.30;72.14;102119.66;5120231;27;45514;-62
2023/03/03 01:51:09;;;;;;;;;38.67;36.00;;;;;4.25;72.52;102121.25;5119774;27;46612;-62
2023/03/03 01:53:43;;;;;;;;;43.33;36.33;;;;;4.22;73.20;102115.97;5119598;27;45371;-62
2023/03/03 01:56:09;;;;;;;;;53.33;40.33;;;;;4.08;73.58;102097.41;5120131;27;45236;-62
2023/03/03 01:58:40;;;;;;;;;45.67;37.67;;;;;4.17;73.19;102115.00;5119621;27;45437;-63
2023/03/03 02:01:10;;;;;;;;;36.33;32.00;;;;;4.14;73.33;102109.72;5119556;27;45429;-62
2023/03/03 02:03:36;;;;;;;;;50.67;38.67;;;;;4.12;73.65;102104.41;5119652;27;45310;-62
2023/03/03 02:06:06;;;;;;;;;51.67;40.00;;;;;4.08;73.23;102102.59;5118548;27;45331;-63
2023/03/03 02:09:00;;;;;;;;;41.67;36.00;;;;;4.11;72.57;102105.28;5119850;27;45409;-62
2023/03/03 02:11:31;;;;;;;;;46.33;35.00;;;;;4.01;73.06;102088.53;5076142;28;45459;-62
2023/03/03 02:13:56;;;;;;;;;55.00;42.00;;;;;4.00;73.80;102093.69;5076103;28;45576;-62
2023/03/03 02:16:22;;;;;;;;;42.67;36.67;;;;;4.02;73.73;102102.41;5076338;28;45369;-62
2023/03/03 02:18:47;;;;;;;;;51.00;37.00;;;;;4.01;74.15;102098.06;5076391;28;45494;-62
2023/03/03 02:21:19;;;;;;;;;51.33;32.33;;;;;4.03;74.07;102100.72;5075860;28;46730;-62
2023/03/03 02:24:00;;;;;;;;;60.67;40.00;;;;;4.03;73.97;102105.94;5076091;28;45565;-62
2023/03/03 02:26:27;;;;;;;;;53.00;40.33;;;;;4.01;74.34;102109.38;5076082;28;45444;-62
2023/03/03 02:28:53;;;;;;;;;55.33;42.00;;;;;3.98;74.15;102109.28;5076141;28;45389;-62
2023/03/03 02:31:21;;;;;;;;;43.67;36.67;;;;;3.98;74.58;102106.69;5075655;28;45424;-62
2023/03/03 02:33:49;;;;;;;;;57.33;37.00;;;;;3.99;74.33;102108.47;5076032;28;45354;-63
2023/03/03 02:36:21;;;;;;;;;53.67;40.33;;;;;3.68;75.33;102066.78;5074930;28;45324;-63
2023/03/03 02:39:04;;;;;;;;;51.33;40.33;;;;;3.90;75.17;102116.00;5076036;28;45433;-62
2023/03/03 02:41:35;;;;;;;;;49.33;38.67;;;;;3.86;75.48;102121.09;5075644;28;46394;-63
2023/03/03 02:44:04;;;;;;;;;37.00;35.67;;;;;3.88;75.17;102124.63;5075899;28;45455;-63
2023/03/03 02:46:36;;;;;;;;;49.33;39.67;;;;;3.81;74.89;102107.97;5075569;28;45420;-63
2023/03/03 02:49:02;;;;;;;;;50.00;39.00;;;;;3.83;75.73;102124.50;5093812;27;45441;-62
2023/03/03 02:51:28;;;;;;;;;55.00;40.00;;;;;3.86;75.64;102123.72;5111519;27;48159;-63
2023/03/03 02:53:53;;;;;;;;;41.00;37.00;;;;;3.83;76.10;102128.00;5118761;27;45437;-63
2023/03/03 02:56:18;;;;;;;;;61.67;43.67;;;;;3.74;76.47;102099.09;5119052;27;45366;-63
2023/03/03 02:58:44;;;;;;;;;50.33;38.67;;;;;3.77;76.25;102111.31;5119194;27;45312;-63
2023/03/03 03:01:09;;;;;;;;;55.67;43.00;;;;;3.78;76.92;102119.16;5119040;27;46173;-63
2023/03/03 03:03:34;;;;;;;;;48.33;38.67;;;;;3.74;76.43;102117.31;5118649;27;45392;-62
2023/03/03 03:06:00;;;;;;;;;65.00;44.33;;;;;3.80;76.60;102117.47;5118096;27;45449;-63
2023/03/03 03:08:25;;;;;;;;;58.67;44.00;;;;;3.84;76.45;102118.47;5118618;27;45367;-62
2023/03/03 03:10:50;;;;;;;;;52.67;42.00;;;;;3.88;75.75;102127.22;5118181;27;46466;-63
2023/03/03 03:13:16;;;;;;;;;64.33;41.00;;;;;3.76;76.97;102099.13;5118556;27;45496;-62
2023/03/03 03:15:44;;;;;;;;;64.67;43.33;;;;;3.87;76.75;102115.06;5118309;27;45344;-62
2023/03/03 03:18:10;;;;;;;;;66.00;45.33;;;;;3.94;77.16;102127.41;5119001;27;45372;-62
2023/03/03 03:20:36;;;;;;;;;66.33;42.00;;;;;3.83;77.98;102098.44;5118457;27;45303;-62
2023/03/03 03:23:02;;;;;;;;;55.67;43.67;;;;;3.95;77.22;102123.94;5118344;27;45408;-62
2023/03/03 03:25:27;;;;;;;;;55.67;40.00;;;;;3.76;76.05;102081.78;5118830;27;45359;-62
2023/03/03 03:27:52;;;;;;;;;67.00;49.33;;;;;3.99;77.89;102120.59;5118652;27;45423;-62
2023/03/03 03:30:19;;;;;;;;;61.67;50.00;;;;;3.99;77.55;102131.91;5118134;27;45395;-62
2023/03/03 03:32:45;;;;;;;;;61.33;47.33;;;;;3.88;78.57;102111.59;5118428;27;45350;-62
2023/03/03 03:35:10;;;;;;;;;56.67;43.33;;;;;3.94;77.36;102115.25;5118441;27;45297;-62
2023/03/03 03:37:36;;;;;;;;;52.33;40.67;;;;;3.94;77.24;102112.66;5118596;27;45358;-62
2023/03/03 03:40:01;;;;;;;;;61.33;47.33;;;;;4.02;78.33;102125.88;5118124;27;46230;-62
2023/03/03 03:42:26;;;;;;;;;71.67;48.67;;;;;4.01;77.38;102122.41;5118447;27;45359;-63
2023/03/03 03:44:52;;;;;;;;;61.67;45.67;;;;;4.06;77.58;102132.94;5118061;27;45235;-62
2023/03/03 03:47:17;;;;;;;;;57.00;46.00;;;;;4.02;76.89;102115.44;5120117;27;45301;-63
2023/03/03 03:49:42;;;;;;;;;64.67;50.67;;;;;4.12;77.83;102121.78;5121777;27;46416;-62
2023/03/03 03:52:08;;;;;;;;;54.33;43.00;;;;;4.11;76.83;102125.22;5121605;27;45454;-63
2023/03/03 03:54:33;;;;;;;;;59.33;47.00;;;;;4.08;77.29;102118.25;5122043;27;45453;-62
2023/03/03 03:56:59;;;;;;;;;67.33;48.00;;;;;4.06;77.10;102113.81;5122049;27;45385;-62
2023/03/03 03:59:24;;;;;;;;;64.67;48.00;;;;;4.12;77.39;102119.19;5121676;27;46510;-62
2023/03/03 04:01:49;;;;;;;;;58.67;45.33;;;;;3.84;76.68;102067.22;5121753;27;45496;-63
2023/03/03 04:04:15;;;;;;;;;64.33;47.33;;;;;4.08;76.47;102107.81;5121833;27;45298;-63
2023/03/03 04:06:41;;;;;;;;;63.67;48.67;;;;;4.00;77.65;102106.72;5121205;27;45432;-62
2023/03/03 04:09:06;;;;;;;;;64.67;45.33;;;;;3.81;77.94;102082.78;5121065;27;45516;-63
2023/03/03 04:11:31;;;;;;;;;59.33;41.67;;;;;3.99;76.92;102111.06;5121721;27;45510;-62
2023/03/03 04:13:57;;;;;;;;;64.67;44.00;;;;;3.99;78.87;102120.59;5121574;27;45248;-63
2023/03/03 04:16:23;;;;;;;;;65.67;41.00;;;;;3.85;78.51;102117.63;5121220;27;45488;-62
2023/03/03 04:18:48;;;;;;;;;59.33;44.00;;;;;3.87;78.77;102113.31;5121365;27;47283;-62
2023/03/03 04:21:14;;;;;;;;;68.00;45.33;;;;;3.89;78.84;102109.03;5121266;27;45377;-62
2023/03/03 04:23:40;;;;;;;;;61.67;43.00;;;;;3.89;78.83;102116.84;5121568;27;45369;-62
2023/03/03 04:26:06;;;;;;;;;59.33;46.67;;;;;3.84;77.31;102124.53;5121356;27;45542;-62
2023/03/03 04:28:31;;;;;;;;;59.00;42.33;;;;;3.77;77.70;102108.72;5120920;27;46443;-63
2023/03/03 04:30:57;;;;;;;;;61.00;45.33;;;;;3.70;78.99;102118.06;5121263;27;45210;-65
2023/03/03 04:33:22;;;;;;;;;56.00;40.33;;;;;3.69;79.25;102110.22;5121314;27;45266;-63
2023/03/03 04:35:47;;;;;;;;;59.67;42.67;;;;;3.68;77.95;102111.94;5121738;27;45238;-63
2023/03/03 04:38:13;;;;;;;;;56.00;43.67;;;;;3.59;79.92;102107.38;5121404;27;45626;-63
2023/03/03 04:40:42;;;;;;;;;58.00;36.33;;;;;3.61;79.69;102113.47;5120998;27;45421;-63
2023/03/03 04:43:08;;;;;;;;;52.00;39.67;;;;;3.51;80.39;102103.66;5120720;27;45345;-64
2023/03/03 04:45:34;;;;;;;;;58.33;43.00;;;;;3.56;80.32;102117.69;5121010;27;45362;-64
2023/03/03 04:47:59;;;;;;;;;55.33;41.00;;;;;3.56;79.79;102117.69;5120705;27;45269;-65
2023/03/03 04:50:24;;;;;;;;;55.67;43.33;;;;;3.55;79.98;102123.72;5121001;27;45371;-63
2023/03/03 04:52:50;;;;;;;;;56.33;39.33;;;;;3.57;79.41;102131.59;5120909;27;45256;-63
2023/03/03 04:55:15;;;;;;;;;52.67;42.67;;;;;3.51;79.07;102115.81;5121448;27;45374;-63
2023/03/03 04:57:41;;;;;;;;;50.00;39.67;;;;;3.53;79.65;102127.13;5120564;27;45667;-63
2023/03/03 05:00:11;;;;;;;;;49.00;37.00;;;;;3.53;79.63;102129.72;5119858;27;45223;-63
2023/03/03 05:02:37;;;;;;;;;47.67;39.00;;;;;3.43;79.28;102113.84;5120792;27;45448;-63
2023/03/03 05:05:03;;;;;;;;;51.67;40.33;;;;;3.49;79.22;102134.84;5120888;27;45388;-63
2023/03/03 05:07:28;;;;;;;;;51.00;38.67;;;;;3.42;79.63;102135.50;5120323;27;47609;-62
2023/03/03 05:09:54;;;;;;;;;46.00;36.00;;;;;3.47;79.36;102146.97;5120423;27;45317;-63
2023/03/03 05:12:20;;;;;;;;;52.33;40.33;;;;;3.46;79.57;102145.19;5120755;27;45375;-63
2023/03/03 05:14:45;;;;;;;;;58.00;40.33;;;;;3.42;79.27;102148.53;5120729;27;45362;-63
2023/03/03 05:17:10;;;;;;;;;50.00;39.00;;;;;3.33;79.06;102140.47;5120024;27;46133;-63
2023/03/03 05:19:36;;;;;;;;;40.00;37.67;;;;;3.41;78.65;102144.19;5120626;27;45378;-63
2023/03/03 05:22:01;;;;;;;;;53.67;40.33;;;;;3.36;79.04;102155.31;5120694;27;45311;-63
2023/03/03 05:24:27;;;;;;;;;44.67;38.33;;;;;3.37;79.41;102146.63;5120714;27;45335;-63
2023/03/03 05:26:52;;;;;;;;;44.33;37.33;;;;;3.26;79.23;102123.75;5120394;27;46688;-63
2023/03/03 05:29:18;;;;;;;;;46.67;36.00;;;;;3.35;79.07;102143.09;5120296;27;45220;-63
2023/03/03 05:31:43;;;;;;;;;51.33;39.67;;;;;3.28;79.83;102142.94;5120605;27;45224;-63
2023/03/03 05:34:08;;;;;;;;;52.33;38.00;;;;;3.20;79.45;102141.81;5120578;27;45242;-63
2023/03/03 05:36:34;;;;;;;;;54.33;39.67;;;;;3.23;79.99;102139.31;5123640;27;46383;-63
2023/03/03 05:38:59;;;;;;;;;55.33;40.33;;;;;3.21;79.65;102148.78;5140835;27;45386;-63
2023/03/03 05:41:25;;;;;;;;;43.33;37.67;;;;;3.16;79.55;102131.28;5140980;27;45226;-63
2023/03/03 05:43:50;;;;;;;;;39.00;37.33;;;;;3.19;79.22;102152.19;5141513;27;45319;-63
2023/03/03 05:46:15;;;;;;;;;44.33;37.00;;;;;3.18;79.05;102156.50;5140756;27;46251;-62
2023/03/03 05:48:41;;;;;;;;;55.33;40.00;;;;;3.08;80.21;102129.31;5124433;27;45543;-62
2023/03/03 05:51:06;;;;;;;;;49.33;38.67;;;;;3.17;79.80;102159.06;5119962;27;45673;-62
2023/03/03 05:53:31;;;;;;;;;37.67;32.67;;;;;3.07;79.48;102124.06;5120105;27;45469;-62
2023/03/03 05:55:57;;;;;;;;;39.00;34.00;;;;;3.14;79.29;102147.72;5119470;27;45466;-62
2023/03/03 05:58:22;;;;;;;;;43.33;36.00;;;;;3.17;80.01;102153.88;5119307;27;45499;-62
2023/03/03 06:00:48;;;;;;;;;41.67;36.67;;;;;3.09;79.72;102131.09;5119997;27;45313;-62
2023/03/03 06:03:13;;;;;;;;;38.00;31.33;;;;;2.95;79.31;102114.19;5119761;27;45310;-63
2023/03/03 06:05:38;;;;;;;;;38.33;32.33;;;;;3.08;79.93;102134.53;5119727;27;46319;-62
2023/03/03 06:08:04;;;;;;;;;46.00;34.00;;;;;3.09;80.08;102157.13;5118996;27;45969;-63
2023/03/03 06:10:30;;;;;;;;;40.33;29.33;;;;;3.02;80.34;102143.84;5137631;27;45387;-63
2023/03/03 06:12:55;;;;;;;;;47.00;37.33;;;;;3.10;79.72;102152.78;5140866;27;45407;-63
2023/03/03 06:15:22;;;;;;;;;39.33;34.67;;;;;3.00;80.66;102141.19;5140156;27;45501;-62
2023/03/03 06:17:47;;;;;;;;;37.33;36.00;;;;;3.09;80.67;102156.22;5131163;27;45182;-63
2023/03/03 06:20:12;;;;;;;;;37.00;34.00;;;;;3.09;80.65;102161.41;5119197;27;45403;-63
2023/03/03 06:22:38;;;;;;;;;49.67;37.33;;;;;3.06;80.55;102159.59;5119851;27;45366;-63
2023/03/03 06:25:03;;;;;;;;;48.00;39.67;;;;;3.08;80.37;102172.66;5118782;27;47063;-63
2023/03/03 06:27:29;;;;;;;;;40.67;36.00;;;;;3.02;80.78;102159.47;5118947;27;45383;-63
2023/03/03 06:29:54;;;;;;;;;44.67;37.00;;;;;2.97;81.11;102152.38;5119232;27;45710;-64
2023/03/03 06:32:19;;;;;;;;;39.67;34.67;;;;;3.06;80.85;102174.34;5117022;27;45342;-63
2023/03/03 06:34:45;;;;;;;;;40.33;35.33;;;;;3.06;80.63;102182.13;5119018;27;46128;-64
2023/03/03 06:37:10;;;;;;;;;36.00;33.00;;;;;3.09;81.84;102184.84;5119088;27;45284;-62
2023/03/03 06:39:36;;;;;;;;;49.00;33.33;;;;;3.07;81.21;102179.59;5119090;27;45301;-62
2023/03/03 06:42:01;;;;;;;;;42.00;37.00;;;;;3.16;80.81;102201.53;5119393;27;45361;-63
2023/03/03 06:44:26;;;;;;;;;39.33;29.33;;;;;3.11;80.04;102184.06;5119218;27;46483;-63
2023/03/03 06:46:52;;;;;;;;;32.67;31.33;;;;;3.21;79.99;102197.34;5118986;27;45402;-62
2023/03/03 06:49:17;;;;;;;;;42.33;34.33;;;;;3.18;80.40;102194.66;5118850;27;45272;-63
2023/03/03 06:51:45;;;;;;;;;37.00;30.33;;;;;3.26;79.39;102207.06;5119237;27;45350;-62
2023/03/03 06:54:16;;;;;;;;;42.33;34.67;;;;;3.26;80.32;102212.28;5118610;27;46547;-63
2023/03/03 06:56:43;;;;;;;;;40.33;35.33;;;;;3.26;81.00;102214.88;5119092;27;45562;-63
2023/03/03 06:59:15;;;;;;;;;37.00;35.00;;;;;3.30;79.92;102218.47;5118437;27;45315;-63
2023/03/03 07:01:42;;;;;;;;;57.67;40.67;;;;;3.31;80.63;102212.41;5118761;27;45612;-63
2023/03/03 07:04:28;;;;;;;;;37.33;34.33;;;;;3.43;79.74;102230.16;5118503;27;45373;-63
2023/03/03 07:06:54;;;;;;;;;38.67;32.67;;;;;3.35;79.74;102214.28;5118372;27;45224;-63
2023/03/03 07:09:28;;;;;;;;;42.67;38.33;;;;;3.54;80.07;102228.72;5118334;27;45476;-63
2023/03/03 07:12:05;;;;;;;;;43.00;35.67;;;;;3.29;79.37;102175.03;5118971;27;45441;-63
2023/03/03 07:14:33;;;;;;;;;40.33;35.33;;;;;3.69;79.02;102211.78;5118596;27;46672;-63
2023/03/03 07:17:03;;;;;;;;;33.67;32.00;;;;;3.90;79.15;102211.56;5118288;27;45322;-63
2023/03/03 07:19:34;;;;;;;;;42.33;36.33;;;;;4.05;78.46;102213.69;5117795;27;45354;-63
2023/03/03 07:22:13;;;;;;;;;40.33;36.67;;;;;4.24;77.28;102223.81;5118225;27;45335;-63
2023/03/03 07:24:40;;;;;;;;;43.00;38.67;;;;;4.24;76.79;102226.41;5117961;27;45302;-63
2023/03/03 07:27:09;;;;;;;;;33.67;29.33;;;;;4.19;76.82;102228.00;5118279;27;45448;-63
2023/03/03 07:29:40;;;;;;;;;44.00;35.67;;;;;4.12;77.21;102215.63;5118234;27;45199;-63
2023/03/03 07:32:21;;;;;;;;;35.67;29.33;;;;;3.99;76.61;102196.16;5118241;27;45472;-63
2023/03/03 07:34:49;;;;;;;;;37.67;32.67;;;;;4.24;76.83;102229.00;5118506;27;46570;-62
2023/03/03 07:37:34;;;;;;;;;35.33;30.67;;;;;4.26;76.77;102226.44;5118285;27;45480;-63
2023/03/03 07:40:05;;;;;;;;;35.33;30.33;;;;;4.25;76.94;102232.50;5116989;27;45477;-62
2023/03/03 07:42:49;;;;;;;;;40.00;33.67;;;;;4.18;76.46;102221.91;5117791;27;45174;-63
2023/03/03 07:45:35;;;;;;;;;33.33;32.00;;;;;4.58;76.72;102239.47;5118287;27;47250;-63
2023/03/03 07:48:16;;;;;;;;;33.33;30.67;;;;;4.78;75.02;102225.19;5117357;27;45478;-63
2023/03/03 07:50:41;;;;;;;;;48.67;36.33;;;;;4.81;74.85;102233.09;5116733;27;45376;-62
2023/03/03 07:53:33;;;;;;;;;43.00;31.33;;;;;4.83;74.48;102251.41;5126855;27;45471;-62
2023/03/03 07:55:59;;;;;;;;;41.00;36.00;;;;;4.84;74.44;102258.41;5122553;27;46480;-63
2023/03/03 07:58:39;;;;;;;;;37.00;34.67;;;;;5.24;73.98;102256.75;5138911;27;45268;-63
2023/03/03 08:01:39;;;;;;;;;44.67;37.33;;;;;6.04;72.69;102266.41;5124619;27;45335;-63
2023/03/03 08:04:35;;;;;;;;;53.00;42.00;;;;;6.44;69.88;102264.56;5118011;27;45563;-63
2023/03/03 08:07:01;;;;;;;;;55.33;42.67;;;;;6.66;68.06;102256.22;5117539;27;46296;-63
2023/03/03 08:09:42;;;;;;;;;52.67;42.33;;;;;6.74;67.95;102270.34;5116989;27;45425;-61
2023/03/03 08:12:37;;;;;;;;;54.67;41.67;;;;;6.47;67.95;102268.97;5131602;27;45406;-62
2023/03/03 08:15:18;;;;;;;;;54.33;40.67;;;;;6.72;68.55;102283.38;5134522;27;45400;-62
2023/03/03 08:17:44;;;;;;;;;46.33;39.33;;;;;7.09;67.23;102285.78;5116687;27;45549;-63
2023/03/03 08:20:27;;;;;;;;;56.33;43.33;;;;;6.96;66.66;102289.94;5117244;27;45524;-63
2023/03/03 08:22:53;;;;;;;;;56.67;45.00;;;;;6.64;67.01;102282.38;5121648;27;45217;-63
2023/03/03 08:25:18;;;;;;;;;59.67;45.67;;;;;6.48;67.13;102289.06;5125449;27;45507;-63
2023/03/03 08:27:44;;;;;;;;;65.67;46.00;;;;;6.31;66.72;102293.09;5116967;27;45397;-63
2023/03/03 08:30:10;;;;;;;;;63.33;47.00;;;;;6.23;67.09;102296.44;5117707;27;45205;-63
2023/03/03 08:32:35;;;;;;;;;57.33;47.00;;;;;6.20;67.01;102306.81;5117829;27;45207;-63
2023/03/03 08:35:00;;;;;;;;;56.00;45.67;;;;;6.09;67.24;102308.34;5119875;27;45429;-63
2023/03/03 08:37:26;;;;;;;;;63.00;49.00;;;;;6.15;67.51;102299.72;5120991;27;45265;-63
2023/03/03 08:39:51;;;;;;;;;57.67;45.33;;;;;6.38;66.17;102308.06;5120744;27;45366;-63
2023/03/03 08:42:17;;;;;;;;;55.33;41.00;;;;;6.31;66.49;102300.94;5121288;27;45292;-63
2023/03/03 08:44:42;;;;;;;;;60.00;46.33;;;;;5.98;66.25;102268.00;5120678;27;45501;-63
2023/03/03 08:47:08;;;;;;;;;61.33;47.00;;;;;6.16;66.18;102315.47;5120481;27;45594;-63
2023/03/03 08:49:33;;;;;;;;;54.67;42.00;;;;;6.58;65.58;102317.16;5120619;27;45376;-63
2023/03/03 08:51:59;;;;;;;;;64.33;49.33;;;;;6.76;64.84;102316.63;5120947;27;45448;-63
2023/03/03 08:54:25;;;;;;;;;58.00;45.00;;;;;7.27;64.11;102322.72;5120895;27;45465;-64
2023/03/03 08:56:50;;;;;;;;;59.00;44.67;;;;;7.80;62.71;102298.22;5120696;27;45460;-64
2023/03/03 08:59:16;;;;;;;;;50.67;44.00;;;;;8.27;60.89;102299.66;5119823;27;45406;-64
2023/03/03 09:01:43;;;;;;;;;56.67;44.67;;;;;8.12;60.73;102299.50;5120111;27;46644;-64
2023/03/03 09:04:09;;;;;;;;;58.33;43.00;;;;;7.79;60.40;102322.66;5120436;27;45505;-63
2023/03/03 09:06:34;;;;;;;;;53.33;41.67;;;;;7.35;60.95;102296.66;5119834;27;46641;-64
2023/03/03 09:09:00;;;;;;;;;55.00;41.00;;;;;7.37;60.81;102312.41;5119479;27;45170;-64
2023/03/03 09:11:28;;;;;;;;;51.00;40.00;;;;;7.40;60.98;102318.56;5120546;27;45443;-64
2023/03/03 09:14:05;;;;;;;;;54.00;40.67;;;;;7.31;61.54;102314.06;5120967;27;45413;-63
2023/03/03 09:16:37;;;;;;;;;47.33;37.00;;;;;7.28;61.93;102303.53;5122993;27;47605;-64
2023/03/03 09:19:28;;;;;;;;;50.33;41.33;;;;;7.52;61.08;102319.63;5124130;27;45430;-64
2023/03/03 09:21:56;;;;;;;;;52.00;38.67;;;;;7.72;60.88;102323.41;5117035;27;45572;-64
2023/03/03 09:24:29;;;;;;;;;50.67;41.67;;;;;7.98;60.69;102318.53;5121959;27;45410;-64
2023/03/03 09:26:57;;;;;;;;;48.33;38.33;;;;;8.39;58.36;102319.91;5120066;27;46635;-63
2023/03/03 09:29:36;;;;;;;;;52.67;41.00;;;;;8.91;57.74;102322.25;5119678;27;45403;-63
2023/03/03 09:32:25;;;;;;;;;55.67;41.33;;;;;9.46;57.87;102329.75;5119035;27;45529;-63
2023/03/03 09:34:51;;;;;;;;;53.33;40.33;;;;;10.01;56.56;102334.47;5119910;27;45450;-64
2023/03/03 09:37:19;;;;;;;;;54.33;39.33;;;;;10.07;55.21;102331.88;5126926;27;45355;-63
2023/03/03 09:39:49;;;;;;;;;52.00;39.67;;;;;10.00;54.87;102332.69;5119055;27;45334;-63
2023/03/03 09:43:13;;;;;;;;;52.67;41.00;;;;;9.72;54.14;102332.53;5130858;27;45548;-62
2023/03/03 09:45:56;;;;;;;;;52.67;41.33;;;;;9.85;54.15;102348.44;4980463;28;45451;-63
2023/03/03 09:48:24;;;;;;;;;55.33;42.67;;;;;10.08;54.05;102335.41;4976699;28;45396;-63
2023/03/03 09:51:11;;;;;;;;;55.33;42.33;;;;;10.25;52.83;102345.97;4976393;28;45404;-63
2023/03/03 09:53:55;;;;;;;;;57.33;44.00;;;;;10.21;52.46;102344.19;4976860;28;45499;-63
2023/03/03 09:56:27;;;;;;;;;60.33;44.00;;;;;10.37;53.16;102337.28;4976743;28;45377;-63
2023/03/03 09:58:53;;;;;;;;;70.00;49.00;;;;;10.45;52.53;102344.34;4976193;28;45408;-63
2023/03/03 10:01:42;;;;;;;;;51.33;41.33;;;;;10.32;51.66;102342.50;4975862;28;45284;-63
2023/03/03 10:04:37;;;;;;;;;61.00;47.33;;;;;9.98;53.20;102339.72;4976895;28;45399;-63
2023/03/03 10:07:24;;;;;;;;;61.33;43.33;;;;;9.84;53.90;102354.53;4975956;28;45523;-64
2023/03/03 10:10:11;;;;;;;;;63.00;46.00;;;;;9.46;53.37;102360.41;4976124;28;46306;-64
2023/03/03 10:12:54;;;;;;;;;59.00;48.33;;;;;9.17;54.26;102363.69;4976360;28;45420;-63
2023/03/03 10:15:41;;;;;;;;;55.33;45.33;;;;;8.93;54.85;102348.53;4976418;28;45357;-63
2023/03/03 10:18:14;;;;;;;;;62.67;42.00;;;;;9.66;53.41;102361.44;4976679;28;45497;-63
2023/03/03 10:21:15;;;;;;;;;54.00;41.33;;;;;10.38;52.15;102357.47;4991092;28;45556;-63
2023/03/03 10:23:53;;;;;;;;;53.67;41.33;;;;;10.52;50.55;102366.31;5055563;28;45251;-63
2023/03/03 10:26:36;;;;;;;;;60.00;45.67;;;;;10.17;51.17;102361.75;5055746;28;45394;-63
2023/03/03 10:29:17;;;;;;;;;57.00;45.33;;;;;9.88;51.86;102358.97;5056111;28;45496;-63
2023/03/03 10:32:00;;;;;;;;;57.00;45.33;;;;;9.88;52.08;102354.56;5055630;28;45362;-63
2023/03/03 10:34:38;;;;;;;;;57.00;45.00;;;;;9.75;52.41;102358.88;5055570;28;45549;-63
2023/03/03 10:37:15;;;;;;;;;52.33;38.67;;;;;9.48;52.28;102363.94;5055849;28;45295;-63
2023/03/03 10:39:56;;;;;;;;;50.67;41.00;;;;;9.11;53.13;102363.63;5055881;28;45303;-63
2023/03/03 10:42:27;;;;;;;;;59.67;42.67;;;;;8.82;53.38;102364.22;5055405;28;46131;-63
2023/03/03 10:44:58;;;;;;;;;58.67;43.33;;;;;8.73;53.54;102374.59;5055478;28;45569;-63
2023/03/03 10:47:59;;;;;;;;;55.67;40.00;;;;;8.76;54.00;102358.88;5055807;28;45529;-63
2023/03/03 10:50:44;;;;;;;;;45.67;37.00;;;;;8.93;53.58;102369.56;4995674;28;45378;-63
2023/03/03 10:53:33;;;;;;;;;57.67;42.33;;;;;8.63;53.61;102319.38;4995517;28;45561;-63
2023/03/03 10:56:26;;;;;;;;;59.33;44.00;;;;;8.79;53.75;102366.81;4994842;28;45209;-63
2023/03/03 10:59:08;;;;;;;;;55.33;40.33;;;;;8.73;54.08;102367.63;5074725;28;45497;-63
2023/03/03 11:02:00;;;;;;;;;50.67;38.67;;;;;8.66;53.99;102371.91;5075438;28;45321;-63
2023/03/03 11:05:11;;;;;;;;;52.67;40.33;;;;;8.68;54.45;102366.66;5075422;28;45563;-63
2023/03/03 11:08:01;;;;;;;;;50.33;38.33;;;;;8.73;54.51;102362.38;5059540;28;45445;-63
2023/03/03 11:10:38;;;;;;;;;56.67;36.67;;;;;8.79;54.52;102365.06;5073266;28;45371;-63
2023/03/03 11:13:20;;;;;;;;;50.33;36.00;;;;;8.71;54.35;102366.69;5075636;28;45451;-63
2023/03/03 11:15:54;;;;;;;;;39.67;35.00;;;;;8.56;54.01;102370.03;5075259;28;47034;-63
2023/03/03 11:18:47;;;;;;;;;48.67;35.00;;;;;8.64;54.46;102372.75;5075363;28;45304;-63
2023/03/03 11:21:28;;;;;;;;;40.67;34.00;;;;;8.68;54.62;102372.81;5075395;28;45386;-63
2023/03/03 11:23:56;;;;;;;;;55.33;41.00;;;;;8.73;54.57;102370.25;5075669;28;45454;-63
2023/03/03 11:26:48;;;;;;;;;33.67;32.67;;;;;8.76;54.17;102374.63;5081357;27;45384;-63
2023/03/03 11:29:33;;;;;;;;;42.00;33.67;;;;;8.61;54.65;102365.75;5074609;28;45504;-63
2023/03/03 11:32:12;;;;;;;;;40.00;33.33;;;;;8.58;54.67;102372.69;5074685;27;45451;-63
2023/03/03 11:34:55;;;;;;;;;45.67;36.67;;;;;8.67;54.61;102376.31;5084571;27;45415;-63